createdAt,value
2022-08-10T00:01:57.327Z,91492.31
2022-08-10T00:04:24.733Z,91497.31
2022-08-10T00:06:54.064Z,91479.75
2022-08-10T00:09:21.657Z,91494.78
2022-08-10T00:11:48.573Z,91480.25
2022-08-10T00:14:17.317Z,91477.88
2022-08-10T00:16:44.119Z,91481.28
2022-08-10T00:19:10.911Z,91476.63
2022-08-10T00:21:37.926Z,91470.44
2022-08-10T00:24:04.973Z,91465.84
2022-08-10T00:27:55.568Z,91468.09
2022-08-10T00:29:19.132Z,91460.19
2022-08-10T00:31:58.375Z,91456.88
2022-08-10T00:34:27.542Z,91464.47
2022-08-10T00:36:54.503Z,91449.03
2022-08-10T00:39:21.415Z,91454.69
2022-08-10T00:42:07.255Z,91453.88
2022-08-10T00:44:40.713Z,91453.13
2022-08-10T00:47:35.318Z,91452.63
2022-08-10T00:49:55.301Z,91462.78
2022-08-10T00:52:24.618Z,91450.56
2022-08-10T00:54:53.026Z,91459.25
2022-08-10T00:57:20.105Z,91465.44
2022-08-10T00:59:58.916Z,91473.81
2022-08-10T01:02:32.077Z,91468.59
2022-08-10T01:05:02.775Z,91464.56
2022-08-10T01:07:35.769Z,91460.56
2022-08-10T01:10:38.778Z,91462.41
2022-08-10T01:13:13.158Z,91456.72
2022-08-10T01:15:54.445Z,91464.34
2022-08-10T01:19:01.110Z,91453.88
2022-08-10T01:21:30.910Z,91463.75
2022-08-10T01:24:15.863Z,91460.72
2022-08-10T01:27:08.475Z,91455.91
2022-08-10T01:29:50.157Z,91453.94
2022-08-10T01:32:24.432Z,91453.25
2022-08-10T01:34:57.747Z,91441.56
2022-08-10T01:37:30.774Z,91457.13
2022-08-10T01:39:59.916Z,91452.97
2022-08-10T01:42:33.524Z,91446.63
2022-08-10T01:45:04.383Z,91432.34
2022-08-10T01:47:57.889Z,91447.78
2022-08-10T01:50:59.080Z,91445.91
2022-08-10T01:53:40.809Z,91439.44
2022-08-10T01:56:11.107Z,91442.00
2022-08-10T01:58:43.146Z,91436.78
2022-08-10T02:01:16.618Z,91448.81
2022-08-10T02:04:04.213Z,91442.06
2022-08-10T02:06:37.227Z,91437.50
2022-08-10T02:09:07.207Z,91428.03
2022-08-10T02:12:07.887Z,91434.75
2022-08-10T02:14:33.054Z,91432.09
2022-08-10T02:17:07.175Z,91427.69
2022-08-10T02:19:36.638Z,91434.50
2022-08-10T02:22:45.757Z,91436.69
2022-08-10T02:24:52.867Z,91440.31
2022-08-10T02:27:22.773Z,91446.53
2022-08-10T02:29:53.293Z,91454.06
2022-08-10T02:32:38.560Z,91454.06
2022-08-10T02:35:07.583Z,91428.25
2022-08-10T02:37:37.528Z,91435.88
2022-08-10T02:40:04.947Z,91443.78
2022-08-10T02:45:18.651Z,91455.06
2022-08-10T02:45:44.281Z,91439.13
2022-08-10T02:48:20.179Z,91446.47
2022-08-10T02:50:55.412Z,91449.53
2022-08-10T02:54:05.346Z,91454.81
2022-08-10T02:56:56.106Z,91451.19
2022-08-10T02:59:39.855Z,91454.13
2022-08-10T03:02:10.778Z,91462.41
2022-08-10T03:04:55.511Z,91454.19
2022-08-10T03:07:44.718Z,91456.16
2022-08-10T03:10:24.555Z,91458.06
2022-08-10T03:12:56.382Z,91469.38
2022-08-10T03:15:25.030Z,91469.75
2022-08-10T03:17:57.959Z,91466.28
2022-08-10T03:20:38.372Z,91472.34
2022-08-10T03:23:11.011Z,91470.03
2022-08-10T03:25:39.271Z,91479.88
2022-08-10T03:28:06.831Z,91480.56
2022-08-10T03:30:34.641Z,91488.19
2022-08-10T03:33:04.197Z,91488.13
2022-08-10T03:35:31.630Z,91479.84
2022-08-10T03:38:00.004Z,91496.72
2022-08-10T03:40:35.805Z,91495.97
2022-08-10T03:43:15.905Z,91495.66
2022-08-10T03:45:55.958Z,91489.94
2022-08-10T03:48:32.292Z,91495.50
2022-08-10T03:51:16.429Z,91501.22
2022-08-10T03:54:04.840Z,91496.94
2022-08-10T03:56:33.326Z,91495.03
2022-08-10T03:59:01.492Z,91499.44
2022-08-10T04:02:44.210Z,91504.03
2022-08-10T04:04:22.863Z,91490.56
2022-08-10T04:06:55.270Z,91500.25
2022-08-10T04:09:43.048Z,91499.88
2022-08-10T04:12:17.837Z,91504.09
2022-08-10T04:14:51.365Z,91501.69
2022-08-10T04:18:02.602Z,91504.66
2022-08-10T04:20:22.444Z,91511.00
2022-08-10T04:22:52.416Z,91482.75
2022-08-10T04:25:23.791Z,91510.91
2022-08-10T04:27:53.889Z,91505.75
2022-08-10T04:30:20.720Z,91500.72
2022-08-10T04:32:52.433Z,91497.28
2022-08-10T04:35:23.370Z,91497.34
2022-08-10T04:37:51.969Z,91495.03
2022-08-10T04:40:29.592Z,91501.81
2022-08-10T04:43:12.486Z,91503.56
2022-08-10T04:45:48.866Z,91501.63
2022-08-10T04:48:41.674Z,91500.72
2022-08-10T04:51:06.081Z,91499.25
2022-08-10T04:53:34.261Z,91494.53
2022-08-10T04:56:20.964Z,91493.22
2022-08-10T04:59:00.575Z,91487.63
2022-08-10T05:02:09.953Z,91482.75
2022-08-10T05:04:34.107Z,91476.97
2022-08-10T05:07:01.816Z,91479.00
2022-08-10T05:09:31.861Z,91470.16
2022-08-10T05:11:58.614Z,91475.19
2022-08-10T05:14:25.526Z,91469.00
2022-08-10T05:16:53.724Z,91466.78
2022-08-10T05:20:02.125Z,91475.88
2022-08-10T05:22:07.348Z,91475.94
2022-08-10T05:24:38.102Z,91469.28
2022-08-10T05:27:11.521Z,91469.72
2022-08-10T05:29:40.483Z,91464.56
2022-08-10T05:32:07.427Z,91460.72
2022-08-10T05:34:34.161Z,91456.06
2022-08-10T05:37:01.401Z,91458.47
2022-08-10T05:39:30.959Z,91451.59
2022-08-10T05:42:01.905Z,91457.50
2022-08-10T05:44:30.177Z,91446.66
2022-08-10T05:46:57.324Z,91448.34
2022-08-10T05:49:24.476Z,91450.88
2022-08-10T05:51:55.111Z,91453.44
2022-08-10T05:54:24.418Z,91450.03
2022-08-10T05:56:53.218Z,91448.50
2022-08-10T06:00:29.531Z,91443.84
2022-08-10T06:02:33.115Z,91438.47
2022-08-10T06:05:08.992Z,91450.28
2022-08-10T06:07:39.195Z,91452.50
2022-08-10T06:10:10.188Z,91456.25
2022-08-10T06:12:53.427Z,91441.78
2022-08-10T06:15:52.221Z,91445.97
2022-08-10T06:18:10.317Z,91437.91
2022-08-10T06:20:39.909Z,91452.25
2022-08-10T06:23:10.091Z,91438.78
2022-08-10T06:26:09.630Z,91433.72
2022-08-10T06:28:28.656Z,91443.25
2022-08-10T06:30:58.763Z,91448.00
2022-08-10T06:33:26.818Z,91429.09
2022-08-10T06:35:56.268Z,91432.63
2022-08-10T06:38:26.706Z,91438.81
2022-08-10T06:40:57.084Z,91433.47
2022-08-10T06:43:28.228Z,91429.94
2022-08-10T06:46:06.924Z,91422.09
2022-08-10T06:48:41.629Z,91436.72
2022-08-10T06:51:14.540Z,91417.97
2022-08-10T06:53:52.940Z,91419.41
2022-08-10T06:56:37.989Z,91406.59
2022-08-10T06:59:21.783Z,91428.34
2022-08-10T07:02:01.502Z,91414.13
2022-08-10T07:04:34.415Z,91409.94
2022-08-10T07:07:04.921Z,91424.31
2022-08-10T07:09:35.737Z,91422.69
2022-08-10T07:12:08.199Z,91422.13
2022-08-10T07:14:43.130Z,91420.31
2022-08-10T07:17:16.791Z,91422.00
2022-08-10T07:19:49.991Z,91417.44
2022-08-10T07:23:05.938Z,91428.50
2022-08-10T07:25:08.911Z,91422.44
2022-08-10T07:27:59.160Z,91421.06
2022-08-10T07:30:23.902Z,91410.69
2022-08-10T07:32:55.762Z,91412.19
2022-08-10T07:35:26.756Z,91404.69
2022-08-10T07:37:58.342Z,91414.78
2022-08-10T07:40:27.978Z,91416.44
2022-08-10T07:42:58.732Z,91418.53
2022-08-10T07:45:29.082Z,91425.03
2022-08-10T07:48:29.758Z,91435.44
2022-08-10T07:51:00.311Z,91434.09
2022-08-10T07:53:32.594Z,91417.31
2022-08-10T07:56:16.960Z,91442.16
2022-08-10T07:58:57.822Z,91430.28
2022-08-10T08:01:29.382Z,91427.81
2022-08-10T08:04:10.989Z,91421.09
2022-08-10T08:06:43.473Z,91435.28
2022-08-10T08:09:11.367Z,91425.22
2022-08-10T08:11:44.664Z,91431.44
2022-08-10T08:14:13.103Z,91427.13
2022-08-10T08:16:44.085Z,91430.94
2022-08-10T08:19:28.228Z,91420.38
2022-08-10T08:24:05.336Z,91439.28
2022-08-10T08:24:47.600Z,91421.66
2022-08-10T08:27:19.578Z,91426.75
2022-08-10T08:29:48.338Z,91428.41
2022-08-10T08:32:22.619Z,91428.94
2022-08-10T08:35:02.162Z,91430.56
2022-08-10T08:38:29.732Z,91422.09
2022-08-10T08:40:33.852Z,91425.50
2022-08-10T08:43:28.461Z,91416.88
2022-08-10T08:46:16.757Z,91416.56
2022-08-10T08:49:11.186Z,91417.94
2022-08-10T08:52:12.386Z,91424.81
2022-08-10T08:55:55.119Z,91419.88
2022-08-10T08:58:30.300Z,91413.47
2022-08-10T09:01:06.452Z,91406.25
2022-08-10T09:03:54.710Z,91418.38
2022-08-10T09:06:45.724Z,91412.25
2022-08-10T09:09:27.643Z,91409.81
2022-08-10T09:12:01.441Z,91405.59
2022-08-10T09:14:41.605Z,91410.50
2022-08-10T09:17:32.670Z,91413.69
2022-08-10T09:20:23.811Z,91400.75
2022-08-10T09:23:00.511Z,91420.41
2022-08-10T09:25:35.751Z,91407.81
2022-08-10T09:28:09.599Z,91408.63
2022-08-10T09:31:22.464Z,91396.00
2022-08-10T09:36:22.959Z,91418.63
2022-08-10T09:37:02.727Z,91420.84
2022-08-10T09:40:56.609Z,91424.97
2022-08-10T09:43:25.022Z,91419.19
2022-08-10T09:46:22.981Z,91411.06
2022-08-10T09:48:54.999Z,91414.31
2022-08-10T09:51:51.764Z,91416.53
2022-08-10T09:54:48.962Z,91410.25
2022-08-10T09:57:44.815Z,91384.19
2022-08-10T10:00:19.352Z,91396.75
2022-08-10T10:03:01.258Z,91411.34
2022-08-10T10:09:10.160Z,91415.94
2022-08-10T10:12:07.710Z,91414.41
2022-08-10T10:15:24.377Z,91407.56
2022-08-10T10:18:07.708Z,91416.91
2022-08-10T10:20:57.174Z,91419.53
2022-08-10T10:23:36.188Z,91412.25
2022-08-10T10:26:21.368Z,91407.34
2022-08-10T10:29:30.863Z,91408.69
2022-08-10T10:32:22.119Z,91402.28
2022-08-10T10:35:09.456Z,91405.13
2022-08-10T10:38:03.036Z,91412.97
2022-08-10T10:40:27.509Z,91418.53
2022-08-10T10:43:20.362Z,91411.88
2022-08-10T10:46:02.512Z,91414.84
2022-08-10T10:48:42.161Z,91413.00
2022-08-10T10:51:27.757Z,91404.78
2022-08-10T10:54:07.068Z,91411.28
2022-08-10T10:56:37.159Z,91410.22
2022-08-10T10:59:55.480Z,91387.41
2022-08-10T11:02:39.141Z,91399.94
2022-08-10T11:05:45.000Z,91417.31
2022-08-10T11:08:37.896Z,91406.34
2022-08-10T11:11:59.906Z,91385.91
2022-08-10T11:14:26.345Z,91386.41
2022-08-10T11:17:02.867Z,91390.31
2022-08-10T11:20:11.948Z,91390.72
2022-08-10T11:22:44.582Z,91381.97
2022-08-10T11:25:29.701Z,91380.28
2022-08-10T11:27:59.358Z,91383.19
2022-08-10T11:30:32.355Z,91383.94
2022-08-10T11:33:11.774Z,91380.00
2022-08-10T11:35:42.924Z,91391.28
2022-08-10T11:38:57.952Z,91392.22
2022-08-10T11:42:07.740Z,91392.06
2022-08-10T11:45:01.230Z,91397.47
2022-08-10T11:47:50.802Z,91409.19
2022-08-10T11:50:31.717Z,91402.97
2022-08-10T11:53:18.732Z,91413.09
2022-08-10T11:55:52.883Z,91408.13
2022-08-10T11:58:47.719Z,91404.31
2022-08-10T12:01:24.922Z,91415.91
2022-08-10T12:03:53.885Z,91428.53
2022-08-10T12:06:53.718Z,91441.63
2022-08-10T12:10:11.058Z,91448.53
2022-08-10T12:12:01.217Z,91453.25
2022-08-10T12:14:51.990Z,91467.00
2022-08-10T12:17:31.276Z,91462.09
2022-08-10T12:20:09.834Z,91470.41
2022-08-10T12:22:51.361Z,91468.19
2022-08-10T12:25:56.883Z,91463.75
2022-08-10T12:28:49.987Z,91451.75
2022-08-10T12:31:26.938Z,91442.44
2022-08-10T12:34:20.399Z,91453.81
2022-08-10T12:37:26.168Z,91453.19
2022-08-10T12:44:07.700Z,91460.91
2022-08-10T12:46:12.535Z,91446.09
2022-08-10T12:48:50.581Z,91458.03
2022-08-10T12:51:28.997Z,91453.34
2022-08-10T12:54:07.170Z,91447.34
2022-08-10T12:56:40.079Z,91430.78
2022-08-10T12:59:11.030Z,91437.63
2022-08-10T13:02:09.989Z,91427.47
2022-08-10T13:04:31.823Z,91425.97
2022-08-10T13:07:01.508Z,91425.72
2022-08-10T13:09:30.421Z,91419.78
2022-08-10T13:12:34.344Z,91420.78
2022-08-10T13:15:45.448Z,91427.72
2022-08-10T13:18:00.512Z,91423.75
2022-08-10T13:20:34.231Z,91450.00
2022-08-10T13:23:05.805Z,91446.78
2022-08-10T13:25:43.589Z,91463.56
2022-08-10T13:28:36.908Z,91480.91
2022-08-10T13:31:11.403Z,91508.09
2022-08-10T13:34:03.674Z,91504.00
2022-08-10T13:36:40.784Z,91500.84
2022-08-10T13:39:08.629Z,91497.13
2022-08-10T13:41:41.022Z,91484.06
2022-08-10T13:44:13.745Z,91509.13
2022-08-10T13:46:42.637Z,91506.84
2022-08-10T13:49:11.444Z,91519.06
2022-08-10T13:51:54.151Z,91496.72
2022-08-10T13:54:29.166Z,91487.19
2022-08-10T13:56:57.459Z,91489.09
2022-08-10T14:00:33.692Z,91489.34
2022-08-10T14:02:22.971Z,91495.00
2022-08-10T14:04:53.263Z,91501.25
2022-08-10T14:07:22.145Z,91487.84
2022-08-10T14:09:52.194Z,91490.25
2022-08-10T14:12:32.057Z,91478.03
2022-08-10T14:15:03.429Z,91469.28
2022-08-10T14:17:31.743Z,91473.25
2022-08-10T14:20:00.278Z,91469.06
2022-08-10T14:22:34.403Z,91462.81
2022-08-10T14:25:12.952Z,91463.28
2022-08-10T14:28:02.613Z,91457.00
2022-08-10T14:30:32.077Z,91456.72
2022-08-10T14:33:04.386Z,91461.00
2022-08-10T14:36:22.473Z,91458.63
2022-08-10T14:38:26.876Z,91459.69
2022-08-10T14:40:56.933Z,91455.53
2022-08-10T14:43:48.245Z,91454.34
2022-08-10T14:46:19.724Z,91453.59
2022-08-10T14:48:52.287Z,91450.91
2022-08-10T14:51:25.877Z,91448.53
2022-08-10T14:53:56.343Z,91445.53
2022-08-10T14:56:31.792Z,91451.59
2022-08-10T14:59:07.127Z,91453.09
2022-08-10T15:02:00.836Z,91439.81
2022-08-10T15:04:28.778Z,91445.00
2022-08-10T15:07:29.704Z,91439.47
2022-08-10T15:10:00.406Z,91439.03
2022-08-10T15:12:35.766Z,91428.28
2022-08-10T15:15:05.496Z,91426.63
2022-08-10T15:17:39.636Z,91423.72
2022-08-10T15:20:20.831Z,91425.19
2022-08-10T15:22:55.806Z,91430.97
2022-08-10T15:25:26.450Z,91427.47
2022-08-10T15:28:04.298Z,91437.81
2022-08-10T15:30:42.939Z,91431.00
2022-08-10T15:34:02.353Z,91429.63
2022-08-10T15:36:43.367Z,91426.03
2022-08-10T15:40:24.616Z,91429.81
2022-08-10T15:42:21.285Z,91430.25
2022-08-10T15:44:50.756Z,91435.94
2022-08-10T15:47:44.923Z,91431.31
2022-08-10T15:50:28.433Z,91439.31
2022-08-10T15:53:16.111Z,91439.56
2022-08-10T15:55:54.521Z,91441.66
2022-08-10T15:58:40.417Z,91445.16
2022-08-10T16:02:14.397Z,91448.00
2022-08-10T16:04:34.823Z,91450.13
2022-08-10T16:07:06.816Z,91446.69
2022-08-10T16:10:23.698Z,91447.09
2022-08-10T16:12:59.668Z,91446.22
2022-08-10T16:15:29.668Z,91454.69
2022-08-10T16:18:08.287Z,91457.81
2022-08-10T16:20:53.501Z,91463.16
2022-08-10T16:24:12.761Z,91459.84
2022-08-10T16:26:41.416Z,91464.88
2022-08-10T16:29:18.011Z,91464.03
2022-08-10T16:31:54.799Z,91471.03
2022-08-10T16:34:24.385Z,91475.59
2022-08-10T16:36:55.327Z,91468.19
2022-08-10T16:39:57.711Z,91475.19
2022-08-10T16:42:35.965Z,91476.97
2022-08-10T16:45:08.938Z,91470.09
2022-08-10T16:47:47.269Z,91476.34
2022-08-10T16:50:17.594Z,91474.59
2022-08-10T16:52:49.575Z,91477.50
2022-08-10T16:55:24.257Z,91481.41
2022-08-10T16:58:09.355Z,91479.97
2022-08-10T17:00:36.701Z,91479.06
2022-08-10T17:03:17.346Z,91483.91
2022-08-10T17:06:03.342Z,91473.00
2022-08-10T17:08:49.149Z,91481.09
2022-08-10T17:11:18.806Z,91481.09
2022-08-10T17:13:49.167Z,91482.47
2022-08-10T17:16:17.519Z,91482.13
2022-08-10T17:18:46.981Z,91483.63
2022-08-10T17:21:25.902Z,91488.34
2022-08-10T17:23:56.612Z,91478.22
2022-08-10T17:26:35.305Z,91482.06
2022-08-10T17:29:57.316Z,91480.75
2022-08-10T17:32:14.733Z,91499.25
2022-08-10T17:34:47.005Z,91499.41
2022-08-10T17:37:18.057Z,91489.56
2022-08-10T17:40:01.266Z,91492.47
2022-08-10T17:42:28.531Z,91499.28
2022-08-10T17:44:56.977Z,91499.91
2022-08-10T17:47:27.446Z,91509.31
2022-08-10T17:49:57.895Z,91515.81
2022-08-10T17:52:30.649Z,91515.28
2022-08-10T17:55:07.151Z,91514.22
2022-08-10T17:57:40.077Z,91514.31
2022-08-10T18:00:14.881Z,91524.78
2022-08-10T18:02:47.456Z,91527.00
2022-08-10T18:05:15.279Z,91527.19
2022-08-10T18:07:51.587Z,91530.19
2022-08-10T18:10:20.855Z,91538.38
2022-08-10T18:12:49.363Z,91551.63
2022-08-10T18:15:25.230Z,91549.56
2022-08-10T18:17:59.514Z,91552.44
2022-08-10T18:20:34.422Z,91549.78
2022-08-10T18:23:01.680Z,91558.47
2022-08-10T18:25:33.573Z,91536.59
2022-08-10T18:28:05.189Z,91548.91
2022-08-10T18:30:45.767Z,91537.47
2022-08-10T18:33:14.207Z,91535.06
2022-08-10T18:35:44.114Z,91541.69
2022-08-10T18:38:12.929Z,91538.69
2022-08-10T18:40:43.770Z,91546.78
2022-08-10T18:44:07.555Z,91554.06
2022-08-10T18:46:09.508Z,91552.25
2022-08-10T18:48:44.297Z,91552.97
2022-08-10T18:51:12.354Z,91552.25
2022-08-10T18:53:53.631Z,91544.25
2022-08-10T18:56:44.714Z,91548.22
2022-08-10T19:00:03.896Z,91559.97
2022-08-10T19:02:49.331Z,91557.91
2022-08-10T19:05:35.911Z,91557.91
2022-08-10T19:08:49.394Z,91557.22
2022-08-10T19:11:44.073Z,91558.19
2022-08-10T19:14:19.332Z,91551.34
2022-08-10T19:16:59.082Z,91549.63
2022-08-10T19:20:04.093Z,91555.63
2022-08-10T19:23:02.419Z,91554.19
2022-08-10T19:28:47.295Z,91555.50
2022-08-10T19:31:44.204Z,91557.78
2022-08-10T19:34:17.498Z,91565.13
2022-08-10T19:37:02.381Z,91555.72
2022-08-10T19:39:56.387Z,91544.28
2022-08-10T19:42:31.305Z,91553.19
2022-08-10T19:46:01.468Z,91560.72
2022-08-10T19:48:34.610Z,91555.66
2022-08-10T19:51:13.035Z,91548.09
2022-08-10T19:53:50.819Z,91545.94
2022-08-10T19:56:34.512Z,91556.16
2022-08-10T20:00:18.839Z,91554.72
2022-08-10T20:02:36.489Z,91546.00
2022-08-10T20:05:16.168Z,91539.69
2022-08-10T20:08:14.483Z,91545.13
2022-08-10T20:11:02.766Z,91552.59
2022-08-10T20:14:02.061Z,91556.34
2022-08-10T20:16:35.142Z,91556.81
2022-08-10T20:19:26.269Z,91556.47
2022-08-10T20:22:18.437Z,91553.81
2022-08-10T20:25:07.450Z,91549.41
2022-08-10T20:28:00.046Z,91554.28
2022-08-10T20:30:33.085Z,91565.03
2022-08-10T20:33:10.391Z,91561.66
2022-08-10T20:35:54.064Z,91554.88
2022-08-10T20:38:30.894Z,91555.28
2022-08-10T20:41:23.256Z,91561.25
2022-08-10T20:44:25.703Z,91562.66
2022-08-10T20:47:19.602Z,91558.03
2022-08-10T20:50:10.031Z,91563.63
2022-08-10T20:52:37.184Z,91563.38
2022-08-10T20:55:11.663Z,91561.19
2022-08-10T20:58:04.626Z,91568.84
2022-08-10T21:00:38.255Z,91555.06
2022-08-10T21:03:31.820Z,91549.59
2022-08-10T21:06:41.648Z,91551.75
2022-08-10T21:09:17.139Z,91553.13
2022-08-10T21:11:59.910Z,91553.94
2022-08-10T21:14:44.350Z,91549.91
2022-08-10T21:17:41.270Z,91556.34
2022-08-10T21:20:30.763Z,91552.03
2022-08-10T21:23:05.557Z,91539.44
2022-08-10T21:26:08.449Z,91542.16
2022-08-10T21:29:05.254Z,91539.41
2022-08-10T21:32:06.424Z,91543.56
2022-08-10T21:34:54.184Z,91532.34
2022-08-10T21:37:39.723Z,91541.00
2022-08-10T21:41:18.905Z,91544.41
2022-08-10T21:44:17.341Z,91538.66
2022-08-10T21:47:41.889Z,91544.19
2022-08-10T21:50:31.700Z,91542.66
2022-08-10T21:53:45.104Z,91540.84
2022-08-10T21:56:46.016Z,91530.75
2022-08-10T21:59:56.364Z,91538.69
2022-08-10T22:02:50.136Z,91537.13
2022-08-10T22:05:42.623Z,91534.88
2022-08-10T22:08:32.190Z,91532.50
2022-08-10T22:11:21.791Z,91526.41
2022-08-10T22:14:10.023Z,91521.84
2022-08-10T22:16:58.614Z,91527.84
2022-08-10T22:19:51.373Z,91518.78
2022-08-10T22:22:45.443Z,91525.31
2022-08-10T22:26:08.415Z,91522.06
2022-08-10T22:29:16.764Z,91521.53
2022-08-10T22:32:08.008Z,91527.94
2022-08-10T22:35:28.624Z,91526.44
2022-08-10T22:38:50.012Z,91523.81
2022-08-10T22:42:04.335Z,91528.63
2022-08-10T22:44:55.335Z,91520.22
2022-08-10T22:47:42.754Z,91526.66
2022-08-10T22:50:18.827Z,91527.13
2022-08-10T22:53:01.633Z,91528.28
2022-08-10T22:55:58.037Z,91535.28
2022-08-10T22:58:40.431Z,91529.41
2022-08-10T23:01:40.613Z,91529.69
2022-08-10T23:04:35.636Z,91529.75
2022-08-10T23:07:18.229Z,91524.03
2022-08-10T23:09:58.172Z,91520.63
2022-08-10T23:12:34.506Z,91520.81
2022-08-10T23:15:21.797Z,91518.59
2022-08-10T23:18:14.416Z,91520.78
2022-08-10T23:20:43.003Z,91529.13
2022-08-10T23:23:23.828Z,91521.59
2022-08-10T23:25:56.616Z,91520.09
2022-08-10T23:28:38.389Z,91520.06
2022-08-10T23:31:51.806Z,91511.75
2022-08-10T23:34:05.692Z,91512.47
2022-08-10T23:36:40.030Z,91510.38
2022-08-10T23:39:26.037Z,91509.97
2022-08-10T23:42:01.936Z,91506.91
2022-08-10T23:44:45.060Z,91506.28
2022-08-10T23:47:15.988Z,91505.56
2022-08-10T23:49:45.028Z,91504.66
2022-08-10T23:52:15.740Z,91479.41
2022-08-10T23:55:10.066Z,91508.72
2022-08-10T23:57:42.154Z,91506.38
